Time;durP1;ratioP1;P1;durP2;ratioP2;P2;SDS_P1;SDS_P2;PMS_P1;PMS_P2;Temp;Humidity;BMP_temperature;BMP_pressure;BME280_temperature;BME280_humidity;BME280_pressure;Samples;Min_cycle;Max_cycle;Signal;HPM_P1;HPM_P2
2024/01/11 00:00:56;;;;;;;49.77;21.07;;;;;;;-2.95;97.10;100557.55;1741304;82;21014;-70
2024/01/11 00:03:25;;;;;;;46.20;18.77;;;;;;;-2.99;96.95;100558.73;1741113;82;21486;-69
2024/01/11 00:05:54;;;;;;;46.05;20.30;;;;;;;-3.00;96.88;100557.02;1741105;82;21050;-69
2024/01/11 00:08:23;;;;;;;45.08;19.23;;;;;;;-3.05;96.69;100539.92;1741038;82;21034;-69
2024/01/11 00:10:51;;;;;;;45.92;18.40;;;;;;;-3.06;96.60;100540.88;1741124;82;21406;-68
2024/01/11 00:13:20;;;;;;;48.55;20.10;;;;;;;-3.09;96.36;100530.38;1741131;82;20967;-67
2024/01/11 00:15:48;;;;;;;48.80;20.70;;;;;;;-3.13;96.20;100530.22;1741236;82;21042;-69
2024/01/11 00:18:17;;;;;;;45.38;19.30;;;;;;;-3.16;96.17;100534.45;1741051;82;21022;-68
2024/01/11 00:20:46;;;;;;;49.63;21.75;;;;;;;-3.16;96.21;100525.08;1741237;82;20998;-68
2024/01/11 00:23:14;;;;;;;47.93;19.67;;;;;;;-3.15;96.17;100519.23;1741266;82;21045;-69
2024/01/11 00:25:43;;;;;;;46.33;19.23;;;;;;;-3.14;96.15;100523.14;1740979;82;21022;-69
2024/01/11 00:28:11;;;;;;;42.93;19.20;;;;;;;-3.16;96.08;100514.36;1741055;82;21014;-69
2024/01/11 00:30:40;;;;;;;43.55;20.23;;;;;;;-3.16;96.07;100523.73;1741213;82;20998;-69
2024/01/11 00:33:09;;;;;;;40.38;17.85;;;;;;;-3.18;96.01;100517.63;1741281;82;20986;-69
2024/01/11 00:35:37;;;;;;;42.20;18.02;;;;;;;-3.18;96.07;100516.29;1741092;82;21089;-70
2024/01/11 00:38:06;;;;;;;44.63;17.70;;;;;;;-3.19;96.09;100509.22;1741047;82;21010;-69
2024/01/11 00:40:35;;;;;;;44.67;18.73;;;;;;;-3.20;96.01;100509.70;1740959;82;21109;-68
2024/01/11 00:43:04;;;;;;;50.43;19.92;;;;;;;-3.22;96.04;100511.63;1741048;82;21053;-69
2024/01/11 00:45:33;;;;;;;50.73;19.23;;;;;;;-3.21;96.11;100517.84;1741192;82;21010;-69
2024/01/11 00:48:02;;;;;;;47.00;19.23;;;;;;;-3.21;96.06;100515.16;1740984;82;20991;-68
2024/01/11 00:50:31;;;;;;;46.20;17.52;;;;;;;-3.21;96.04;100508.47;1741126;82;21057;-69
2024/01/11 00:53:02;;;;;;;43.52;17.37;;;;;;;-3.20;96.07;100504.82;1714793;82;21029;-69
2024/01/11 00:55:31;;;;;;;41.70;17.80;;;;;;;-3.21;96.05;100499.09;1741238;82;21002;-69
2024/01/11 00:57:59;;;;;;;46.80;18.70;;;;;;;-3.20;96.07;100494.10;1741137;82;21029;-68
2024/01/11 01:00:28;;;;;;;46.48;18.23;;;;;;;-3.19;96.07;100489.13;1740971;82;21018;-70
2024/01/11 01:02:56;;;;;;;47.08;18.00;;;;;;;-3.18;96.09;100491.31;1741229;82;21026;-69
2024/01/11 01:05:25;;;;;;;44.90;17.80;;;;;;;-3.22;96.01;100478.13;1741191;82;21026;-69
2024/01/11 01:07:53;;;;;;;47.80;18.50;;;;;;;-3.23;95.99;100462.17;1741221;82;21045;-70
2024/01/11 01:10:22;;;;;;;46.42;18.10;;;;;;;-3.24;96.02;100470.69;1714476;82;21038;-70
2024/01/11 01:12:51;;;;;;;41.00;17.55;;;;;;;-3.20;96.11;100465.97;1740961;82;20986;-69
2024/01/11 01:15:20;;;;;;;44.18;18.02;;;;;;;-3.18;96.15;100463.19;1741174;82;20975;-67
2024/01/11 01:17:48;;;;;;;42.55;16.62;;;;;;;-3.18;96.11;100455.14;1741188;82;21019;-70
2024/01/11 01:20:17;;;;;;;39.20;16.73;;;;;;;-3.17;96.06;100453.70;1741195;82;21057;-70
2024/01/11 01:22:45;;;;;;;39.67;16.85;;;;;;;-3.18;96.05;100446.63;1741239;82;21018;-68
2024/01/11 01:25:14;;;;;;;41.60;17.12;;;;;;;-3.18;96.03;100445.28;1741186;82;21073;-69
2024/01/11 01:27:43;;;;;;;39.95;16.97;;;;;;;-3.17;96.08;100441.64;1741337;82;21022;-69
2024/01/11 01:30:11;;;;;;;43.73;17.15;;;;;;;-3.14;96.15;100440.08;1741031;82;21014;-69
2024/01/11 01:32:39;;;;;;;39.53;17.32;;;;;;;-3.14;96.06;100441.42;1741131;82;20994;-69
2024/01/11 01:35:08;;;;;;;39.70;16.55;;;;;;;-3.14;95.96;100434.72;1741027;82;21002;-69
2024/01/11 01:37:37;;;;;;;39.48;15.43;;;;;;;-3.13;95.96;100435.09;1741210;82;21041;-69
2024/01/11 01:40:07;;;;;;;45.33;17.48;;;;;;;-3.13;95.79;100431.07;1740907;82;21490;-69
2024/01/11 01:42:36;;;;;;;43.98;16.57;;;;;;;-3.12;95.78;100418.53;1741267;82;20994;-71
2024/01/11 01:45:06;;;;;;;46.83;18.75;;;;;;;-3.12;95.70;100423.41;1741229;82;20983;-69
2024/01/11 01:47:35;;;;;;;41.53;17.17;;;;;;;-3.11;95.67;100410.38;1741053;82;21422;-68
2024/01/11 01:50:06;;;;;;;42.40;17.55;;;;;;;-3.09;95.61;100408.45;1741123;82;21277;-70
2024/01/11 01:52:34;;;;;;;42.38;17.73;;;;;;;-3.08;95.51;100398.09;1740972;82;21228;-70
2024/01/11 01:55:03;;;;;;;41.98;17.48;;;;;;;-3.07;95.45;100395.80;1741159;82;21438;-70
2024/01/11 01:57:33;;;;;;;47.55;19.57;;;;;;;-3.07;95.30;100389.58;1741028;82;21006;-68
2024/01/11 02:00:02;;;;;;;44.75;19.27;;;;;;;-3.09;95.23;100384.33;1714774;82;21474;-70
2024/01/11 02:02:32;;;;;;;48.13;17.90;;;;;;;-3.10;95.08;100377.26;1739535;82;21457;-68
2024/01/11 02:05:01;;;;;;;46.73;18.07;;;;;;;-3.11;94.93;100372.01;1741056;82;20991;-69
2024/01/11 02:07:30;;;;;;;40.52;17.15;;;;;;;-3.13;94.80;100360.55;1741208;82;21030;-69
2024/01/11 02:09:59;;;;;;;47.13;20.20;;;;;;;-3.13;94.78;100339.11;1740943;82;21415;-69
2024/01/11 02:12:27;;;;;;;39.18;17.57;;;;;;;-3.15;94.61;100342.38;1741112;82;21037;-69
2024/01/11 02:14:55;;;;;;;40.63;17.27;;;;;;;-3.16;94.58;100328.13;1741053;82;21078;-69
2024/01/11 02:17:24;;;;;;;41.95;18.60;;;;;;;-3.17;94.47;100331.78;1740926;82;21026;-70
2024/01/11 02:19:52;;;;;;;43.30;18.35;;;;;;;-3.20;94.43;100323.48;1714190;82;21062;-70
2024/01/11 02:22:31;;;;;;;44.03;18.30;;;;;;;-3.21;94.49;100316.89;1741025;82;21022;-69
2024/01/11 02:25:00;;;;;;;45.30;18.35;;;;;;;-3.19;94.50;100317.64;1741052;82;21034;-70
2024/01/11 02:27:28;;;;;;;40.80;17.12;;;;;;;-3.18;94.45;100313.99;1740969;82;20998;-70
2024/01/11 02:29:56;;;;;;;45.05;17.80;;;;;;;-3.18;94.50;100312.66;1740844;82;21042;-71
2024/01/11 02:32:24;;;;;;;42.65;17.75;;;;;;;-3.16;94.43;100306.70;1714268;82;21018;-69
2024/01/11 02:34:53;;;;;;;38.58;17.65;;;;;;;-3.13;94.49;100303.79;1741251;82;21001;-69
2024/01/11 02:37:21;;;;;;;39.92;17.17;;;;;;;-3.13;94.38;100297.09;1741038;82;21030;-69
2024/01/11 02:39:50;;;;;;;40.80;16.45;;;;;;;-3.12;94.35;100277.84;1741010;82;21033;-70
2024/01/11 02:42:18;;;;;;;42.03;16.77;;;;;;;-3.12;94.33;100284.06;1741130;82;21015;-70
2024/01/11 02:44:47;;;;;;;36.45;16.57;;;;;;;-3.12;94.28;100277.84;1740931;82;20971;-69
2024/01/11 02:47:15;;;;;;;36.83;15.85;;;;;;;-3.11;94.35;100274.20;1714586;82;20982;-69
2024/01/11 02:49:44;;;;;;;40.98;16.93;;;;;;;-3.10;94.35;100266.05;1741190;82;21018;-69
2024/01/11 02:52:14;;;;;;;37.83;16.48;;;;;;;-3.10;94.31;100256.67;1741067;82;20987;-69
2024/01/11 02:54:43;;;;;;;45.30;18.00;;;;;;;-3.10;94.32;100256.67;1740954;82;21026;-70
2024/01/11 02:57:11;;;;;;;37.80;15.38;;;;;;;-3.10;94.30;100253.99;1741039;82;21454;-70
2024/01/11 02:59:40;;;;;;;40.30;17.20;;;;;;;-3.09;94.32;100253.02;1740977;82;21007;-71
2024/01/11 03:02:09;;;;;;;43.25;17.12;;;;;;;-3.09;94.28;100242.30;1740968;82;20986;-70
2024/01/11 03:04:37;;;;;;;42.33;17.70;;;;;;;-3.08;94.32;100231.09;1740949;82;21078;-69
2024/01/11 03:07:05;;;;;;;42.45;16.77;;;;;;;-3.09;94.29;100224.88;1740985;82;21014;-69
2024/01/11 03:09:34;;;;;;;41.70;16.75;;;;;;;-3.07;94.30;100224.77;1740893;82;20982;-82
2024/01/11 03:12:04;;;;;;;46.45;18.48;;;;;;;-3.07;94.32;100213.56;1740927;82;21042;-70
2024/01/11 03:14:33;;;;;;;45.10;19.05;;;;;;;-3.06;94.30;100211.73;1740998;82;21046;-70
2024/01/11 03:17:02;;;;;;;40.52;17.62;;;;;;;-3.05;94.29;100208.94;1741054;82;20971;-69
2024/01/11 03:19:32;;;;;;;39.88;17.12;;;;;;;-3.05;94.26;100196.03;1741044;82;21442;-69
2024/01/11 03:22:04;;;;;;;42.67;17.07;;;;;;;-3.04;94.25;100189.70;1740939;82;21438;-70
2024/01/11 03:24:32;;;;;;;42.13;17.30;;;;;;;-3.04;94.26;100190.55;1741012;82;21053;-70
2024/01/11 03:27:00;;;;;;;42.48;17.30;;;;;;;-3.03;94.33;100181.55;1740932;82;21089;-70
2024/01/11 03:29:28;;;;;;;42.08;17.48;;;;;;;-3.00;94.24;100170.59;1741053;82;21022;-69
2024/01/11 03:31:56;;;;;;;40.80;17.00;;;;;;;-2.99;94.18;100167.42;1741268;82;21053;-69
2024/01/11 03:34:25;;;;;;;41.37;16.32;;;;;;;-3.00;94.13;100157.67;1714340;82;21482;-68
2024/01/11 03:36:54;;;;;;;39.35;16.57;;;;;;;-2.97;94.17;100160.12;1741078;82;21045;-71
2024/01/11 03:39:24;;;;;;;43.42;17.60;;;;;;;-2.99;93.95;100152.20;1741054;82;21435;-69
2024/01/11 03:41:52;;;;;;;45.30;17.73;;;;;;;-3.00;93.97;100131.73;1735008;82;21105;-70
2024/01/11 03:44:20;;;;;;;40.30;15.25;;;;;;;-2.98;93.91;100116.87;1733234;83;21022;-71
2024/01/11 03:46:49;;;;;;;37.65;16.77;;;;;;;-2.98;93.90;100102.98;1733236;83;21003;-69
2024/01/11 03:49:17;;;;;;;39.80;16.93;;;;;;;-2.97;93.81;100096.65;1733193;83;21490;-68
2024/01/11 03:51:46;;;;;;;39.53;16.65;;;;;;;-2.98;93.76;100097.63;1733346;83;20979;-69
2024/01/11 03:54:14;;;;;;;39.83;16.73;;;;;;;-2.97;93.64;100100.67;1733117;83;21060;-71
2024/01/11 03:56:43;;;;;;;37.78;15.85;;;;;;;-2.95;93.65;100083.98;1733290;83;20998;-70
2024/01/11 03:59:11;;;;;;;41.98;16.73;;;;;;;-2.92;93.66;100078.38;1733245;82;21034;-70
2024/01/11 04:01:41;;;;;;;38.63;16.07;;;;;;;-2.90;93.46;100085.81;1733272;83;21443;-70
2024/01/11 04:04:09;;;;;;;39.25;15.18;;;;;;;-2.88;93.38;100084.36;1733190;83;21015;-71
2024/01/11 04:06:37;;;;;;;37.55;16.00;;;;;;;-2.89;93.34;100087.52;1714872;83;21014;-71
2024/01/11 04:09:06;;;;;;;40.35;14.87;;;;;;;-2.87;93.23;100071.32;1733252;82;21018;-69
2024/01/11 04:11:34;;;;;;;36.13;14.75;;;;;;;-2.88;93.07;100077.17;1733259;83;21041;-78
2024/01/11 04:14:03;;;;;;;37.50;14.87;;;;;;;-2.88;92.99;100070.95;1733367;83;21066;-70
2024/01/11 04:16:31;;;;;;;37.85;14.20;;;;;;;-2.87;92.96;100069.98;1733234;83;21006;-69
2024/01/11 04:19:00;;;;;;;32.85;15.28;;;;;;;-2.88;92.79;100067.78;1733340;83;21419;-70
2024/01/11 04:21:29;;;;;;;37.50;14.60;;;;;;;-2.89;92.58;100059.38;1733134;83;21450;-71
2024/01/11 04:23:57;;;;;;;35.95;15.00;;;;;;;-2.90;92.54;100064.86;1733285;83;21070;-71
2024/01/11 04:26:26;;;;;;;34.27;14.90;;;;;;;-2.91;92.52;100066.69;1733172;83;21551;-70
2024/01/11 04:28:54;;;;;;;38.25;15.05;;;;;;;-2.90;92.48;100068.88;1733184;83;21003;-71
2024/01/11 04:31:25;;;;;;;36.15;14.75;;;;;;;-2.90;92.41;100068.39;1733440;82;20975;-70
2024/01/11 04:33:53;;;;;;;37.83;14.53;;;;;;;-2.91;92.34;100078.75;1733182;82;21054;-71
2024/01/11 04:36:21;;;;;;;36.95;14.73;;;;;;;-2.93;92.33;100082.04;1733227;83;21010;-72
2024/01/11 04:38:50;;;;;;;36.20;14.53;;;;;;;-2.94;92.41;100070.95;1733272;82;21105;-70
2024/01/11 04:41:18;;;;;;;40.17;17.05;;;;;;;-2.91;92.50;100060.47;1736136;82;21081;-70
2024/01/11 04:43:46;;;;;;;35.43;15.05;;;;;;;-2.91;92.52;100054.63;1740928;82;21437;-70
2024/01/11 04:46:21;;;;;;;38.42;15.93;;;;;;;-2.87;92.58;100048.53;1741091;82;20986;-70
2024/01/11 04:48:50;;;;;;;36.58;15.58;;;;;;;-2.85;92.61;100052.44;1741356;82;21015;-71
2024/01/11 04:51:18;;;;;;;37.20;16.02;;;;;;;-2.83;92.64;100059.87;1740976;82;21014;-70
2024/01/11 04:53:47;;;;;;;33.28;14.70;;;;;;;-2.83;92.58;100042.45;1740896;82;21430;-70
2024/01/11 04:56:16;;;;;;;39.50;15.70;;;;;;;-2.84;92.64;100038.91;1741036;82;21057;-69
2024/01/11 04:58:45;;;;;;;34.98;15.03;;;;;;;-2.83;92.72;100047.80;1741046;82;21070;-71
2024/01/11 05:01:14;;;;;;;44.00;16.50;;;;;;;-2.82;92.80;100040.13;1741092;82;21034;-71
2024/01/11 05:03:43;;;;;;;34.75;14.55;;;;;;;-2.81;92.94;100046.71;1741035;82;20982;-70
2024/01/11 05:06:22;;;;;;;38.90;15.65;;;;;;;-2.79;92.96;100044.77;1741002;82;21447;-69
2024/01/11 05:08:54;;;;;;;34.30;14.65;;;;;;;-2.78;93.02;100045.61;1714641;82;21006;-70
2024/01/11 05:11:26;;;;;;;36.10;15.95;;;;;;;-2.79;93.18;100043.42;1741094;82;21002;-71
2024/01/11 05:13:54;;;;;;;36.63;15.70;;;;;;;-2.79;93.28;100039.89;1741029;82;21062;-70
2024/01/11 05:16:24;;;;;;;40.45;15.95;;;;;;;-2.79;93.45;100045.25;1741121;82;20990;-70
2024/01/11 05:18:55;;;;;;;37.55;15.48;;;;;;;-2.75;93.57;100038.67;1740916;82;21062;-70
2024/01/11 05:21:24;;;;;;;39.30;14.83;;;;;;;-2.74;93.66;100027.83;1741048;82;20987;-71
2024/01/11 05:23:52;;;;;;;35.45;14.60;;;;;;;-2.71;93.74;100021.36;1741368;82;21031;-70
2024/01/11 05:26:21;;;;;;;37.05;15.20;;;;;;;-2.69;93.81;100016.73;1741044;82;21305;-71
2024/01/11 05:28:50;;;;;;;38.08;15.48;;;;;;;-2.68;93.88;100013.92;1741034;82;21597;-72
2024/01/11 05:31:19;;;;;;;35.65;14.38;;;;;;;-2.69;94.01;100009.54;1740963;82;21049;-70
2024/01/11 05:33:48;;;;;;;34.05;14.63;;;;;;;-2.66;94.16;100011.13;1741163;82;21035;-71
2024/01/11 05:36:17;;;;;;;32.15;12.75;;;;;;;-2.64;94.32;100019.89;1741053;82;21050;-71
2024/01/11 05:38:46;;;;;;;35.33;15.30;;;;;;;-2.64;94.54;100014.05;1741003;82;21034;-70
2024/01/11 05:41:14;;;;;;;36.50;15.13;;;;;;;-2.61;94.67;100018.31;1688569;82;21042;-71
2024/01/11 05:43:43;;;;;;;34.35;14.13;;;;;;;-2.61;94.80;100026.35;1732985;83;21006;-71
2024/01/11 05:46:11;;;;;;;39.20;14.63;;;;;;;-2.59;94.96;100023.09;1733132;83;20999;-70
2024/01/11 05:48:40;;;;;;;35.83;14.15;;;;;;;-2.58;95.14;100030.16;1733186;83;20998;-70
2024/01/11 05:51:09;;;;;;;34.08;14.07;;;;;;;-2.56;95.32;100023.70;1733227;83;21038;-71
2024/01/11 05:53:38;;;;;;;33.88;14.35;;;;;;;-2.57;95.40;100013.95;1733371;83;21002;-71
2024/01/11 05:56:10;;;;;;;33.58;13.62;;;;;;;-2.54;95.54;100011.50;1733173;83;21018;-71
2024/01/11 05:58:40;;;;;;;34.45;15.13;;;;;;;-2.54;95.69;100008.82;1733231;83;21440;-69
2024/01/11 06:01:09;;;;;;;40.73;15.83;;;;;;;-2.54;95.83;100007.48;1733211;83;20988;-70
2024/01/11 06:03:39;;;;;;;35.48;16.55;;;;;;;-2.53;95.88;100003.83;1732990;83;21030;-72
2024/01/11 06:06:08;;;;;;;37.48;15.40;;;;;;;-2.54;96.05;99999.44;1733173;83;21030;-70
2024/01/11 06:08:37;;;;;;;34.75;14.50;;;;;;;-2.52;96.20;99992.61;1733063;83;21043;-70
2024/01/11 06:11:07;;;;;;;33.25;14.20;;;;;;;-2.53;96.38;99980.17;1714956;83;21026;-69
2024/01/11 06:13:36;;;;;;;31.95;14.50;;;;;;;-2.55;96.48;99972.25;1733284;83;20979;-72
2024/01/11 06:16:05;;;;;;;30.82;14.00;;;;;;;-2.54;96.62;99953.84;1733109;83;21141;-70
2024/01/11 06:18:33;;;;;;;31.02;13.72;;;;;;;-2.54;96.74;99959.20;1733231;83;21082;-70
2024/01/11 06:21:02;;;;;;;38.53;14.95;;;;;;;-2.54;96.89;99958.36;1733210;83;20995;-70
2024/01/11 06:23:30;;;;;;;32.17;14.13;;;;;;;-2.55;97.04;99950.80;1733082;83;21438;-71
2024/01/11 06:25:59;;;;;;;36.13;14.60;;;;;;;-2.54;97.16;99951.16;1733236;83;20975;-71
2024/01/11 06:28:28;;;;;;;32.60;13.75;;;;;;;-2.53;97.24;99943.48;1733211;83;21042;-71
2024/01/11 06:30:56;;;;;;;34.05;14.35;;;;;;;-2.53;97.32;99939.95;1714713;83;21011;-71
2024/01/11 06:33:25;;;;;;;35.43;14.53;;;;;;;-2.51;97.40;99955.42;1733047;83;21459;-70
2024/01/11 06:35:53;;;;;;;28.55;13.48;;;;;;;-2.50;97.45;99955.30;1732956;83;21455;-71
2024/01/11 06:38:22;;;;;;;29.75;13.88;;;;;;;-2.48;97.51;99941.27;1733026;82;21493;-71
2024/01/11 06:40:50;;;;;;;32.60;14.00;;;;;;;-2.45;97.53;99945.05;1714172;83;21058;-72
2024/01/11 06:43:18;;;;;;;38.30;14.70;;;;;;;-2.44;97.51;99936.02;1733018;82;21066;-71
2024/01/11 06:45:47;;;;;;;33.25;14.53;;;;;;;-2.44;97.40;99941.88;1733040;83;21018;-69
2024/01/11 06:48:15;;;;;;;33.88;15.25;;;;;;;-2.43;97.29;99942.23;1732966;83;20963;-71
2024/01/11 06:50:43;;;;;;;35.17;14.78;;;;;;;-2.46;97.21;99939.31;1714799;83;21054;-71
2024/01/11 06:53:12;;;;;;;38.33;15.72;;;;;;;-2.47;97.10;99944.81;1733200;83;21007;-71
2024/01/11 06:55:42;;;;;;;43.35;16.60;;;;;;;-2.50;97.10;99947.25;1733077;83;21945;-71
2024/01/11 06:58:10;;;;;;;38.28;16.45;;;;;;;-2.49;97.21;99942.25;1733143;83;20999;-71
2024/01/11 07:00:42;;;;;;;39.65;15.35;;;;;;;-2.49;97.24;99936.89;1733015;83;21497;-71
2024/01/11 07:03:12;;;;;;;38.50;15.53;;;;;;;-2.47;97.25;99934.08;1733198;83;21071;-71
2024/01/11 07:05:41;;;;;;;41.50;15.58;;;;;;;-2.47;97.31;99931.39;1733334;83;21439;-72
2024/01/11 07:08:10;;;;;;;33.90;14.07;;;;;;;-2.49;97.33;99939.57;1733332;83;21030;-71
2024/01/11 07:10:38;;;;;;;36.53;14.13;;;;;;;-2.49;97.45;99932.02;1715141;83;21007;-72
2024/01/11 07:13:10;;;;;;;44.25;17.23;;;;;;;-2.52;97.49;99918.36;1733240;83;21017;-72
2024/01/11 07:15:37;;;;;;;36.15;14.25;;;;;;;-2.50;97.68;99916.41;1733264;83;21019;-71
2024/01/11 07:18:06;;;;;;;36.33;15.23;;;;;;;-2.50;97.78;99912.39;1733204;83;20998;-71
2024/01/11 07:20:42;;;;;;;35.65;14.63;;;;;;;-2.49;97.95;99898.00;1733130;83;21038;-71
2024/01/11 07:23:11;;;;;;;33.75;14.80;;;;;;;-2.47;98.14;99905.42;1733416;83;20994;-71
2024/01/11 07:25:40;;;;;;;37.35;14.95;;;;;;;-2.47;98.22;99906.77;1733237;82;21400;-71
2024/01/11 07:28:09;;;;;;;32.95;13.98;;;;;;;-2.47;98.36;99908.11;1714820;83;21003;-71
2024/01/11 07:30:37;;;;;;;32.30;13.65;;;;;;;-2.45;98.45;99907.98;1733307;82;21089;-71
2024/01/11 07:33:06;;;;;;;32.98;15.03;;;;;;;-2.45;98.55;99901.27;1733262;83;21042;-71
2024/01/11 07:35:34;;;;;;;40.20;14.60;;;;;;;-2.45;98.62;99892.74;1733369;83;20979;-72
2024/01/11 07:38:03;;;;;;;34.98;13.85;;;;;;;-2.46;98.77;99897.73;1733206;83;21018;-73
2024/01/11 07:40:32;;;;;;;37.08;15.15;;;;;;;-2.45;98.91;99892.74;1733148;83;21070;-72
2024/01/11 07:43:03;;;;;;;33.42;15.53;;;;;;;-2.45;98.94;99892.74;1700093;83;21103;-72
2024/01/11 07:45:32;;;;;;;35.52;14.95;;;;;;;-2.42;99.10;99893.83;1710128;84;21118;-71
2024/01/11 07:48:03;;;;;;;35.60;15.03;;;;;;;-2.41;99.04;99895.53;1709754;84;21050;-71
2024/01/11 07:50:32;;;;;;;34.67;13.83;;;;;;;-2.41;99.09;99879.92;1710131;84;21467;-72
2024/01/11 07:53:01;;;;;;;34.15;14.60;;;;;;;-2.39;99.16;99886.02;1709933;83;21114;-72
2024/01/11 07:55:30;;;;;;;31.62;12.75;;;;;;;-2.37;99.22;99888.08;1684643;84;21055;-72
2024/01/11 07:57:58;;;;;;;32.10;13.45;;;;;;;-2.37;99.20;99867.47;1710039;84;21106;-71
2024/01/11 08:00:26;;;;;;;32.30;13.60;;;;;;;-2.36;99.17;99865.64;1709901;84;21503;-72
2024/01/11 08:02:55;;;;;;;33.58;13.53;;;;;;;-2.36;99.16;99871.85;1709881;84;21043;-72
2024/01/11 08:05:26;;;;;;;33.10;14.00;;;;;;;-2.36;99.14;99878.56;1709851;84;21063;-72
2024/01/11 08:07:56;;;;;;;32.42;13.32;;;;;;;-2.34;99.13;99878.43;1709885;84;21054;-72
2024/01/11 08:10:25;;;;;;;30.82;14.75;;;;;;;-2.35;99.06;99866.84;1710173;84;21039;-72
2024/01/11 08:12:55;;;;;;;35.85;14.80;;;;;;;-2.33;99.10;99880.13;1710124;84;21091;-72
2024/01/11 08:15:24;;;;;;;33.92;15.43;;;;;;;-2.34;99.02;99875.26;1684713;84;21102;-72
2024/01/11 08:17:53;;;;;;;48.08;17.12;;;;;;;-2.32;99.04;99859.88;1709760;84;21046;-72
2024/01/11 08:20:22;;;;;;;43.33;17.15;;;;;;;-2.29;98.98;99872.19;1710000;84;21565;-72
2024/01/11 08:22:50;;;;;;;40.00;16.27;;;;;;;-2.28;98.95;99873.41;1709961;84;21133;-72
2024/01/11 08:25:19;;;;;;;37.53;14.55;;;;;;;-2.25;98.94;99883.02;1684438;84;21079;-72
2024/01/11 08:27:48;;;;;;;34.40;15.18;;;;;;;-2.22;98.84;99870.69;1709999;84;21030;-71
2024/01/11 08:30:17;;;;;;;34.23;14.73;;;;;;;-2.22;98.65;99872.52;1709939;84;21487;-72
2024/01/11 08:32:45;;;;;;;34.10;14.50;;;;;;;-2.21;98.53;99875.56;1710106;84;21003;-72
2024/01/11 08:35:14;;;;;;;32.53;14.30;;;;;;;-2.20;98.50;99878.61;1710026;84;21482;-73
2024/01/11 08:37:43;;;;;;;33.70;15.00;;;;;;;-2.19;98.41;99889.22;1684342;84;21074;-72
2024/01/11 08:40:12;;;;;;;37.58;14.60;;;;;;;-2.18;98.23;99881.52;1684409;84;21067;-72
2024/01/11 08:42:42;;;;;;;33.23;14.30;;;;;;;-2.16;98.25;99882.73;1715479;82;21030;-73
2024/01/11 08:45:17;;;;;;;32.78;13.58;;;;;;;-2.13;98.21;99869.91;1715049;83;21268;-72
2024/01/11 08:47:41;;;;;;;35.05;14.80;;;;;;;-2.12;98.00;99874.30;1733311;83;21524;-72
2024/01/11 08:50:15;;;;;;;31.45;13.28;;;;;;;-2.13;97.81;99871.75;1733217;83;21485;-73
2024/01/11 08:52:43;;;;;;;41.63;13.98;;;;;;;-2.14;97.71;99870.05;1733390;83;21014;-72
2024/01/11 08:55:12;;;;;;;39.53;15.15;;;;;;;-2.14;97.56;99866.87;1733131;83;20998;-72
2024/01/11 08:57:42;;;;;;;37.23;15.80;;;;;;;-2.15;97.55;99865.16;1732605;83;21505;-72
2024/01/11 09:00:17;;;;;;;39.90;16.80;;;;;;;-2.13;97.54;99863.70;1695257;83;21106;-72
2024/01/11 09:02:49;;;;;;;34.35;14.13;;;;;;;-2.10;97.57;99864.28;1716381;82;21037;-74
2024/01/11 09:05:16;;;;;;;37.30;15.18;;;;;;;-2.05;97.70;99858.03;1703659;84;21117;-74
2024/01/11 09:07:45;;;;;;;36.77;14.55;;;;;;;-2.04;97.48;99842.29;1718326;83;21501;-75
2024/01/11 09:10:14;;;;;;;42.62;15.72;;;;;;;-2.02;97.36;99857.77;1746523;82;21124;-74
2024/01/11 09:12:43;;;;;;;30.72;14.65;;;;;;;-2.01;97.10;99851.91;1732928;82;21088;-74
2024/01/11 09:15:12;;;;;;;30.68;13.83;;;;;;;-2.04;96.78;99848.15;1744663;82;21469;-75
2024/01/11 09:17:45;;;;;;;34.33;15.03;;;;;;;-2.07;96.61;99835.84;1703944;84;21039;-75
2024/01/11 09:20:16;;;;;;;33.13;13.45;;;;;;;-2.07;96.62;99822.42;1703813;84;21162;-75
2024/01/11 09:22:45;;;;;;;33.45;14.95;;;;;;;-2.04;96.62;99830.70;1703812;83;21058;-74
2024/01/11 09:25:14;;;;;;;37.53;14.70;;;;;;;-2.02;96.54;99813.97;1685915;84;21703;-74
2024/01/11 09:27:42;;;;;;;30.12;14.13;;;;;;;-2.00;96.47;99801.27;1703784;84;21428;-75
2024/01/11 09:30:11;;;;;;;31.68;13.80;;;;;;;-2.00;96.26;99803.95;1703716;84;21032;-75
2024/01/11 09:32:40;;;;;;;32.05;13.53;;;;;;;-2.02;96.08;99796.53;1710210;83;21092;-75
2024/01/11 09:35:09;;;;;;;31.90;13.38;;;;;;;-2.03;96.06;99782.26;1763362;81;21010;-75
2024/01/11 09:37:40;;;;;;;33.98;15.28;;;;;;;-2.02;96.00;99783.96;1744503;81;21010;-75
2024/01/11 09:40:10;;;;;;;35.48;15.32;;;;;;;-1.98;96.18;99781.86;1763171;80;21069;-75
2024/01/11 09:42:39;;;;;;;33.85;15.35;;;;;;;-1.95;96.09;99782.48;1764051;81;21057;-75
2024/01/11 09:45:17;;;;;;;36.90;13.80;;;;;;;-1.96;95.92;99783.92;1812417;79;20983;-76
2024/01/11 09:47:46;;;;;;;34.73;13.88;;;;;;;-1.96;95.82;99782.58;1812538;79;21023;-75
2024/01/11 09:50:21;;;;;;;33.33;14.20;;;;;;;-1.96;95.78;99771.34;1812749;79;20983;-74
2024/01/11 09:52:50;;;;;;;35.35;13.95;;;;;;;-1.95;95.60;99768.20;1812568;79;21031;-72
2024/01/11 09:55:19;;;;;;;32.50;14.47;;;;;;;-1.92;95.58;99780.02;1812552;79;21042;-73
2024/01/11 09:57:48;;;;;;;33.92;13.48;;;;;;;-1.89;95.44;99760.95;1812332;79;20968;-73
2024/01/11 10:00:18;;;;;;;35.48;14.18;;;;;;;-1.89;95.28;99763.64;1812497;79;21165;-73
2024/01/11 10:02:47;;;;;;;32.98;13.32;;;;;;;-1.87;95.07;99758.14;1812504;79;21011;-75
2024/01/11 10:05:18;;;;;;;33.13;15.10;;;;;;;-1.83;94.96;99752.36;1812611;79;21537;-75
2024/01/11 10:07:46;;;;;;;32.00;14.43;;;;;;;-1.80;94.84;99757.47;1794348;79;20998;-75
2024/01/11 10:10:18;;;;;;;35.40;15.20;;;;;;;-1.77;94.71;99753.66;1783316;80;21057;-76
2024/01/11 10:12:48;;;;;;;28.30;12.78;;;;;;;-1.75;94.66;99749.00;1783630;80;21457;-76
2024/01/11 10:15:17;;;;;;;28.80;12.95;;;;;;;-1.71;94.54;99745.06;1758068;80;21093;-76
2024/01/11 10:17:47;;;;;;;32.23;13.55;;;;;;;-1.70;94.13;99739.56;1783418;80;21038;-75
2024/01/11 10:20:23;;;;;;;35.05;14.43;;;;;;;-1.73;93.50;99733.11;1783294;80;21014;-75
2024/01/11 10:22:52;;;;;;;34.33;13.93;;;;;;;-1.75;93.49;99721.66;1783335;80;20995;-76
2024/01/11 10:25:20;;;;;;;28.27;12.65;;;;;;;-1.72;93.44;99728.10;1783317;80;21461;-75
2024/01/11 10:27:49;;;;;;;31.70;13.13;;;;;;;-1.71;93.08;99719.55;1783338;80;21037;-75
2024/01/11 10:30:17;;;;;;;29.85;13.05;;;;;;;-1.73;92.97;99713.47;1783311;80;21033;-75
2024/01/11 10:32:47;;;;;;;35.83;13.85;;;;;;;-1.71;92.95;99711.50;1783536;80;20966;-75
2024/01/11 10:35:22;;;;;;;25.43;11.97;;;;;;;-1.72;92.53;99710.65;1783311;80;21061;-76
2024/01/11 10:37:50;;;;;;;32.98;13.68;;;;;;;-1.76;92.26;99698.48;1783451;80;21019;-76
2024/01/11 10:40:23;;;;;;;33.70;13.90;;;;;;;-1.77;92.28;99695.94;1783300;80;21050;-75
2024/01/11 10:42:51;;;;;;;31.35;13.62;;;;;;;-1.76;92.26;99690.42;1783083;80;20998;-76
2024/01/11 10:45:25;;;;;;;31.00;13.00;;;;;;;-1.74;92.19;99707.25;1780658;80;21003;-76
2024/01/11 10:48:07;;;;;;;30.68;13.30;;;;;;;-1.74;92.15;99680.39;1753441;80;21101;-76
2024/01/11 10:50:41;;;;;;;35.52;15.18;;;;;;;-1.74;92.23;99688.45;1780633;80;20994;-75
2024/01/11 10:53:34;;;;;;;31.20;12.43;;;;;;;-1.73;92.08;99691.98;1753671;80;21454;-75
2024/01/11 10:56:02;;;;;;;30.37;13.80;;;;;;;-1.73;92.25;99694.18;1773153;80;21420;-76
2024/01/11 10:58:32;;;;;;;31.15;13.50;;;;;;;-1.71;92.32;99685.49;1780525;80;21415;-75
2024/01/11 11:01:00;;;;;;;35.95;14.65;;;;;;;-1.70;92.18;99688.53;1780640;80;21030;-75
2024/01/11 11:03:34;;;;;;;32.25;14.13;;;;;;;-1.70;92.00;99685.00;1780656;80;20983;-75
2024/01/11 11:06:05;;;;;;;31.12;13.35;;;;;;;-1.71;91.97;99674.75;1753349;80;21030;-75
2024/01/11 11:08:35;;;;;;;34.55;14.13;;;;;;;-1.68;91.86;99669.10;1805893;79;21043;-75
2024/01/11 11:11:07;;;;;;;33.02;13.88;;;;;;;-1.68;91.61;99670.45;1806922;79;20991;-76
2024/01/11 11:13:36;;;;;;;33.90;13.93;;;;;;;-1.67;91.64;99672.15;1807000;79;20991;-75
2024/01/11 11:16:06;;;;;;;35.05;14.45;;;;;;;-1.66;91.58;99669.81;1807220;79;21432;-77
2024/01/11 11:18:37;;;;;;;36.03;14.73;;;;;;;-1.65;91.54;99667.48;1807202;79;21447;-79
2024/01/11 11:21:11;;;;;;;31.07;13.62;;;;;;;-1.63;91.57;99664.66;1807027;79;21463;-78